Time;durP1;ratioP1;P1;durP2;ratioP2;P2;SDS_P1;SDS_P2;PMS_P1;PMS_P2;Temp;Humidity;BMP_temperature;BMP_pressure;BME280_temperature;BME280_humidity;BME280_pressure;Samples;Min_cycle;Max_cycle;Signal;HPM_P1;HPM_P2
2021/05/27 00:01:32;;;;;;;;;;;10.10;99.90;;;;;;10575334;28;19942;-65
2021/05/27 00:06:33;;;;;;;;;;;10.00;99.90;;;;;;10574535;28;20323;-65
2021/05/27 00:11:34;;;;;;;;;;;10.00;99.90;;;;;;10574750;28;19974;-65
2021/05/27 00:16:36;;;;;;;;;;;10.00;99.90;;;;;;10575331;28;19923;-65
2021/05/27 00:21:38;;;;;;;;;;;10.00;99.90;;;;;;10575406;28;19931;-65
2021/05/27 00:26:40;;;;;;;;;;;9.90;99.90;;;;;;10580160;28;19976;-66
2021/05/27 00:31:42;;;;;;;;;;;9.90;99.90;;;;;;10583517;28;19927;-66
2021/05/27 00:36:43;;;;;;;;;;;9.90;99.90;;;;;;10582738;28;20268;-65
2021/05/27 00:41:45;;;;;;;;;;;9.90;99.90;;;;;;10582548;28;19940;-66
2021/05/27 00:46:47;;;;;;;;;;;9.90;99.90;;;;;;10581628;28;20577;-64
2021/05/27 00:51:48;;;;;;;;;;;9.90;99.90;;;;;;10579100;28;19927;-66
2021/05/27 00:56:52;;;;;;;;;;;9.90;99.90;;;;;;10579086;28;20053;-65
2021/05/27 01:01:54;;;;;;;;;;;9.90;99.90;;;;;;10580006;28;19928;-66
2021/05/27 01:06:55;;;;;;;;;;;9.50;99.90;;;;;;10581003;28;20038;-66
2021/05/27 01:11:56;;;;;;;;;;;9.90;99.90;;;;;;10580599;28;19934;-65
2021/05/27 01:16:58;;;;;;;;;;;9.90;99.90;;;;;;10580615;28;19927;-65
2021/05/27 01:22:00;;;;;;;;;;;9.90;99.90;;;;;;10580312;28;19931;-65
2021/05/27 01:27:01;;;;;;;;;;;11.60;99.90;;;;;;10580093;28;20762;-65
2021/05/27 01:32:02;;;;;;;;;;;9.80;99.90;;;;;;10579213;28;20014;-65
2021/05/27 01:37:04;;;;;;;;;;;9.80;99.90;;;;;;10578645;28;19931;-65
2021/05/27 01:42:06;;;;;;;;;;;9.80;99.90;;;;;;10579703;28;19930;-65
2021/05/27 01:47:07;;;;;;;;;;;9.80;99.90;;;;;;10578151;28;20702;-65
2021/05/27 01:52:09;;;;;;;;;;;9.80;99.90;;;;;;10578050;28;20358;-65
2021/05/27 01:57:10;;;;;;;;;;;9.80;99.90;;;;;;10577940;28;20010;-65
2021/05/27 02:02:11;;;;;;;;;;;9.80;99.90;;;;;;10578726;28;19932;-66
2021/05/27 02:07:14;;;;;;;;;;;9.80;99.90;;;;;;10581074;28;20018;-65
2021/05/27 02:12:15;;;;;;;;;;;9.90;99.90;;;;;;10581166;28;19928;-64
2021/05/27 02:17:16;;;;;;;;;;;9.90;99.90;;;;;;10580476;28;19934;-64
2021/05/27 02:22:18;;;;;;;;;;;9.90;99.90;;;;;;10580722;28;19931;-64
2021/05/27 02:27:19;;;;;;;;;;;9.90;99.90;;;;;;10578789;28;19923;-64
2021/05/27 02:32:21;;;;;;;;;;;9.90;99.90;;;;;;10580126;28;20428;-64
2021/05/27 02:37:23;;;;;;;;;;;9.90;99.90;;;;;;10580136;28;20006;-65
2021/05/27 02:42:24;;;;;;;;;;;10.00;99.90;;;;;;10579160;28;20018;-64
2021/05/27 02:47:25;;;;;;;;;;;10.00;99.90;;;;;;10578304;28;19924;-64
2021/05/27 02:52:27;;;;;;;;;;;10.00;99.90;;;;;;10577904;28;19931;-64
2021/05/27 02:57:28;;;;;;;;;;;10.00;99.90;;;;;;10577009;28;20018;-64
2021/05/27 03:02:29;;;;;;;;;;;10.00;99.90;;;;;;10578603;28;20397;-64
2021/05/27 03:07:31;;;;;;;;;;;10.10;99.90;;;;;;10576778;28;19931;-64
2021/05/27 03:12:33;;;;;;;;;;;10.10;99.90;;;;;;10575948;28;20300;-66
2021/05/27 03:17:34;;;;;;;;;;;10.10;99.90;;;;;;10576266;28;19924;-64
2021/05/27 03:22:36;;;;;;;;;;;10.10;99.90;;;;;;10577646;28;19971;-65
2021/05/27 03:27:37;;;;;;;;;;;10.10;99.90;;;;;;10577671;28;19950;-65
2021/05/27 03:32:40;;;;;;;;;;;10.00;99.90;;;;;;10578186;28;19928;-65
2021/05/27 03:37:42;;;;;;;;;;;10.00;99.90;;;;;;10578081;28;19931;-64
2021/05/27 03:42:44;;;;;;;;;;;10.00;99.90;;;;;;10577334;28;19924;-65
2021/05/27 03:47:45;;;;;;;;;;;10.10;99.90;;;;;;10577178;28;20273;-64
2021/05/27 03:52:47;;;;;;;;;;;10.10;99.90;;;;;;10577986;28;19942;-64
2021/05/27 03:57:49;;;;;;;;;;;10.10;99.90;;;;;;10577581;28;20003;-65
2021/05/27 04:02:50;;;;;;;;;;;10.10;99.90;;;;;;10576248;28;19931;-65
2021/05/27 04:07:52;;;;;;;;;;;10.10;99.90;;;;;;10577001;28;19928;-64
2021/05/27 04:12:54;;;;;;;;;;;10.10;99.90;;;;;;10576822;28;20469;-64
2021/05/27 04:17:56;;;;;;;;;;;10.20;99.90;;;;;;10577185;28;19927;-64
2021/05/27 04:22:58;;;;;;;;;;;10.20;99.90;;;;;;10576834;28;19934;-64
2021/05/27 04:28:00;;;;;;;;;;;10.20;99.90;;;;;;10576748;28;19924;-64
2021/05/27 04:33:04;;;;;;;;;;;10.20;99.90;;;;;;10576928;28;19960;-64
2021/05/27 04:38:07;;;;;;;;;;;10.20;99.90;;;;;;10576690;28;19928;-64
2021/05/27 04:43:08;;;;;;;;;;;10.20;99.90;;;;;;10576184;28;19923;-64
2021/05/27 04:48:10;;;;;;;;;;;10.20;99.90;;;;;;10576747;28;19979;-64
2021/05/27 04:53:12;;;;;;;;;;;10.20;99.90;;;;;;10574868;28;19928;-65
2021/05/27 04:58:14;;;;;;;;;;;10.40;99.90;;;;;;10574504;28;19928;-65
2021/05/27 05:03:15;;;;;;;;;;;10.20;99.90;;;;;;10574328;28;19928;-64
2021/05/27 05:08:17;;;;;;;;;;;10.20;99.90;;;;;;10574354;28;19961;-65
2021/05/27 05:13:18;;;;;;;;;;;10.30;99.90;;;;;;10578974;28;20780;-64
2021/05/27 05:18:20;;;;;;;;;;;10.30;99.90;;;;;;10583274;28;19931;-65
2021/05/27 05:23:22;;;;;;;;;;;10.30;99.90;;;;;;10582719;28;19940;-64
2021/05/27 05:28:23;;;;;;;;;;;10.30;99.90;;;;;;10582979;28;19930;-64
2021/05/27 05:33:24;;;;;;;;;;;10.40;99.90;;;;;;10582258;28;20310;-64
2021/05/27 05:38:26;;;;;;;;;;;10.50;99.90;;;;;;10582500;28;19934;-65
2021/05/27 05:43:27;;;;;;;;;;;10.50;99.90;;;;;;10582160;28;20012;-64
2021/05/27 05:48:28;;;;;;;;;;;10.50;99.90;;;;;;10582143;28;19988;-64
2021/05/27 05:53:31;;;;;;;;;;;10.50;99.90;;;;;;10580857;28;19928;-65
2021/05/27 05:58:32;;;;;;;;;;;10.50;99.90;;;;;;10580360;28;19970;-66
2021/05/27 06:03:34;;;;;;;;;;;10.50;99.90;;;;;;10579320;28;19923;-65
2021/05/27 06:08:35;;;;;;;;;;;10.50;99.90;;;;;;10579776;28;20011;-64
2021/05/27 06:13:37;;;;;;;;;;;10.50;99.90;;;;;;10579610;28;20287;-66
2021/05/27 06:18:38;;;;;;;;;;;10.50;99.90;;;;;;10578225;28;20031;-65
2021/05/27 06:23:40;;;;;;;;;;;10.50;99.90;;;;;;10578992;28;19981;-64
2021/05/27 06:28:41;;;;;;;;;;;10.50;99.90;;;;;;10578758;28;19970;-64
2021/05/27 06:33:43;;;;;;;;;;;10.60;99.90;;;;;;10577273;28;19927;-65
2021/05/27 06:38:45;;;;;;;;;;;9.20;99.90;;;;;;10575750;28;20008;-64
2021/05/27 06:43:47;;;;;;;;;;;10.80;99.90;;;;;;10576090;28;20010;-65
2021/05/27 06:48:48;;;;;;;;;;;10.90;99.90;;;;;;10576861;28;19935;-64
2021/05/27 06:53:51;;;;;;;;;;;11.00;99.90;;;;;;10576717;28;20007;-65
2021/05/27 06:58:52;;;;;;;;;;;11.00;99.90;;;;;;10576670;28;20265;-65
2021/05/27 07:03:53;;;;;;;;;;;11.00;99.90;;;;;;10577137;28;19928;-66
2021/05/27 07:08:56;;;;;;;;;;;11.20;99.90;;;;;;10576894;28;19936;-66
2021/05/27 07:13:57;;;;;;;;;;;11.20;99.90;;;;;;10573534;28;19933;-66
2021/05/27 07:18:58;;;;;;;;;;;11.20;99.90;;;;;;10576548;28;19924;-66
2021/05/27 07:24:00;;;;;;;;;;;11.30;99.90;;;;;;10576325;28;20898;-66
2021/05/27 07:29:01;;;;;;;;;;;11.20;99.90;;;;;;10576397;28;20054;-66
2021/05/27 07:34:02;;;;;;;;;;;11.30;99.90;;;;;;10574683;28;20303;-66
2021/05/27 07:39:04;;;;;;;;;;;11.30;99.90;;;;;;10574511;28;19924;-66
2021/05/27 07:44:05;;;;;;;;;;;11.30;99.90;;;;;;10574691;28;19927;-65
2021/05/27 07:49:06;;;;;;;;;;;11.20;99.90;;;;;;10574632;28;19927;-66
2021/05/27 07:54:08;;;;;;;;;;;11.20;99.90;;;;;;10574131;28;19935;-66
2021/05/27 07:59:10;;;;;;;;;;;13.90;99.90;;;;;;10573319;28;19928;-66
2021/05/27 08:04:12;;;;;;;;;;;11.40;99.90;;;;;;10574268;28;19936;-66
2021/05/27 08:09:14;;;;;;;;;;;11.50;99.90;;;;;;10574921;28;19931;-66
2021/05/27 08:14:15;;;;;;;;;;;11.50;99.90;;;;;;10575146;28;19930;-66
2021/05/27 08:19:16;;;;;;;;;;;11.70;99.90;;;;;;10575052;28;20385;-66
2021/05/27 08:24:18;;;;;;;;;;;11.80;99.90;;;;;;10574335;28;20265;-65
2021/05/27 08:29:19;;;;;;;;;;;11.90;99.90;;;;;;10574150;28;20383;-65
2021/05/27 08:34:20;;;;;;;;;;;11.90;99.90;;;;;;10574488;28;19930;-65
2021/05/27 08:39:22;;;;;;;;;;;12.00;99.90;;;;;;10574517;28;20011;-66
2021/05/27 08:44:24;;;;;;;;;;;10.20;99.90;;;;;;10573525;28;19928;-66
2021/05/27 08:49:25;;;;;;;;;;;11.80;99.90;;;;;;10581976;28;19946;-66
2021/05/27 08:54:27;;;;;;;;;;;11.70;99.90;;;;;;10581831;28;19928;-66
2021/05/27 08:59:28;;;;;;;;;;;11.70;99.90;;;;;;10581510;28;19966;-63
2021/05/27 09:04:29;;;;;;;;;;;11.90;99.90;;;;;;10582150;28;19932;-65
2021/05/27 09:09:48;;;;;;;;;;;12.00;99.90;;;;;;10581441;28;19972;-67
2021/05/27 09:14:50;;;;;;;;;;;12.10;99.90;;;;;;10581400;28;20295;-67
2021/05/27 09:20:18;;;;;;;;;;;12.10;99.90;;;;;;10581119;28;20692;-67
2021/05/27 09:25:26;;;;;;;;;;;12.10;99.90;;;;;;10532097;28;20299;-67
2021/05/27 09:30:28;;;;;;;;;;;12.10;99.90;;;;;;10581109;28;19939;-64
2021/05/27 09:35:29;;;;;;;;;;;12.00;99.90;;;;;;10580880;28;20298;-65
2021/05/27 09:40:33;;;;;;;;;;;12.00;99.90;;;;;;10579126;28;20429;-65
2021/05/27 09:45:35;;;;;;;;;;;12.10;99.90;;;;;;10577249;28;20057;-65
2021/05/27 09:50:41;;;;;;;;;;;12.10;99.90;;;;;;10579798;28;19983;-64
2021/05/27 09:55:43;;;;;;;;;;;12.40;99.90;;;;;;10580434;28;19927;-67
2021/05/27 10:00:45;;;;;;;;;;;12.70;99.90;;;;;;10579237;28;19951;-67
2021/05/27 10:05:46;;;;;;;;;;;13.20;99.90;;;;;;10578978;28;19938;-64
2021/05/27 10:10:49;;;;;;;;;;;12.60;99.90;;;;;;10578530;28;20288;-63
2021/05/27 10:15:50;;;;;;;;;;;12.70;99.90;;;;;;10578982;28;19931;-65
2021/05/27 10:20:51;;;;;;;;;;;12.70;99.90;;;;;;10579093;28;19928;-66
2021/05/27 10:25:55;;;;;;;;;;;13.10;99.90;;;;;;10578251;28;19952;-64
2021/05/27 10:30:57;;;;;;;;;;;13.60;99.00;;;;;;10578453;28;20018;-63
2021/05/27 10:36:00;;;;;;;;;;;12.60;98.20;;;;;;10577654;28;20388;-62
2021/05/27 10:41:02;;;;;;;;;;;14.40;97.10;;;;;;10578042;28;19924;-62
2021/05/27 10:46:13;;;;;;;;;;;14.40;96.50;;;;;;10577113;28;19923;-66
2021/05/27 10:51:23;;;;;;;;;;;14.00;97.30;;;;;;10577418;28;20022;-66
2021/05/27 10:56:41;;;;;;;;;;;13.90;97.60;;;;;;10577205;28;20295;-67
2021/05/27 11:01:56;;;;;;;;;;;13.70;98.00;;;;;;10577395;28;20354;-66
2021/05/27 11:07:13;;;;;;;;;;;13.60;98.60;;;;;;10577345;28;19923;-66
2021/05/27 11:12:17;;;;;;;;;;;13.50;99.70;;;;;;10576380;28;19928;-66
2021/05/27 11:17:24;;;;;;;;;;;13.30;99.90;;;;;;10575891;28;20341;-67
2021/05/27 11:22:44;;;;;;;;;;;13.30;99.90;;;;;;10577187;28;19924;-67
2021/05/27 11:27:46;;;;;;;;;;;13.20;99.90;;;;;;10577920;28;19931;-66
2021/05/27 11:32:49;;;;;;;;;;;13.40;99.90;;;;;;10577505;28;19924;-67
2021/05/27 11:37:50;;;;;;;;;;;14.10;99.90;;;;;;10577017;28;19946;-66
2021/05/27 11:42:52;;;;;;;;;;;15.30;98.40;;;;;;10576343;28;20297;-66
2021/05/27 11:48:10;;;;;;;;;;;16.30;96.00;;;;;;10575418;28;20004;-65
2021/05/27 11:53:11;;;;;;;;;;;16.90;93.10;;;;;;10575381;28;19981;-66
2021/05/27 11:58:13;;;;;;;;;;;17.10;92.00;;;;;;10575370;28;20001;-67
2021/05/27 12:03:14;;;;;;;;;;;17.60;90.90;;;;;;10574682;28;20038;-67
2021/05/27 12:08:15;;;;;;;;;;;18.20;88.00;;;;;;10574397;28;20335;-67
2021/05/27 12:13:18;;;;;;;;;;;18.30;85.00;;;;;;10573622;28;20014;-64
2021/05/27 12:18:20;;;;;;;;;;;18.20;84.70;;;;;;10572151;28;19930;-64
2021/05/27 12:23:22;;;;;;;;;;;18.20;85.50;;;;;;10581644;28;19997;-65
2021/05/27 12:28:26;;;;;;;;;;;18.80;82.80;;;;;;10583346;28;19968;-63
2021/05/27 12:33:28;;;;;;;;;;;18.70;80.30;;;;;;10583283;28;19932;-67
2021/05/27 12:38:29;;;;;;;;;;;18.00;82.40;;;;;;10582903;28;19927;-63
2021/05/27 12:43:33;;;;;;;;;;;17.30;86.30;;;;;;10581614;28;20401;-63
2021/05/27 12:48:45;;;;;;;;;;;16.80;88.60;;;;;;10581854;28;20455;-65
2021/05/27 12:53:50;;;;;;;;;;;17.40;89.10;;;;;;10581970;28;20010;-64
2021/05/27 12:58:53;;;;;;;;;;;17.90;86.20;;;;;;10582113;28;19939;-66
2021/05/27 13:03:55;;;;;;;;;;;17.60;87.50;;;;;;10581670;28;20003;-64
2021/05/27 13:08:56;;;;;;;;;;;17.70;84.40;;;;;;10581125;28;19927;-64
2021/05/27 13:13:59;;;;;;;;;;;17.70;83.00;;;;;;10580706;28;19934;-64
2021/05/27 13:19:00;;;;;;;;;;;18.00;83.00;;;;;;10581301;28;19924;-65
2021/05/27 13:24:13;;;;;;;;;;;18.50;81.50;;;;;;10580937;28;20010;-65
2021/05/27 13:29:15;;;;;;;;;;;18.40;80.70;;;;;;10580761;28;19928;-64
2021/05/27 13:34:16;;;;;;;;;;;18.50;81.80;;;;;;10579677;28;20026;-66
2021/05/27 13:39:18;;;;;;;;;;;18.20;80.10;;;;;;10580285;28;19924;-66
2021/05/27 13:44:20;;;;;;;;;;;18.00;83.80;;;;;;10579341;28;19932;-66
2021/05/27 13:49:23;;;;;;;;;;;17.10;86.50;;;;;;10580040;28;19924;-65
2021/05/27 13:54:24;;;;;;;;;;;16.70;89.70;;;;;;10579818;28;20004;-65
2021/05/27 13:59:26;;;;;;;;;;;16.50;91.20;;;;;;10579283;28;19947;-64
2021/05/27 14:04:30;;;;;;;;;;;16.90;90.90;;;;;;10579508;28;19924;-69
2021/05/27 14:09:31;;;;;;;;;;;18.20;86.00;;;;;;10579769;28;19935;-64
2021/05/27 14:14:33;;;;;;;;;;;18.50;82.10;;;;;;10580506;28;19945;-66
2021/05/27 14:19:34;;;;;;;;;;;18.20;80.30;;;;;;10580300;28;20433;-64
2021/05/27 14:24:36;;;;;;;;;;;17.90;82.00;;;;;;10579488;28;20383;-64
2021/05/27 14:29:39;;;;;;;;;;;17.70;83.60;;;;;;10580011;28;20022;-64
2021/05/27 14:34:40;;;;;;;;;;;17.60;85.40;;;;;;10580525;28;19979;-64
2021/05/27 14:39:42;;;;;;;;;;;17.80;83.90;;;;;;10578830;28;20434;-65
2021/05/27 14:44:44;;;;;;;;;;;17.60;82.60;;;;;;10578609;28;20260;-65
2021/05/27 14:49:46;;;;;;;;;;;16.90;84.20;;;;;;10580549;28;20011;-63
2021/05/27 14:54:47;;;;;;;;;;;16.70;87.40;;;;;;10579086;28;19971;-65
2021/05/27 14:59:49;;;;;;;;;;;16.60;89.60;;;;;;10579055;28;19928;-65
2021/05/27 15:04:53;;;;;;;;;;;17.40;89.60;;;;;;10579021;28;21305;-64
2021/05/27 15:09:54;;;;;;;;;;;16.90;87.60;;;;;;10578165;28;19924;-65
2021/05/27 15:14:56;;;;;;;;;;;16.90;87.10;;;;;;10578252;28;19928;-65
2021/05/27 15:19:57;;;;;;;;;;;17.00;86.60;;;;;;10577931;28;20380;-65
2021/05/27 15:24:59;;;;;;;;;;;16.80;86.50;;;;;;10578003;28;19923;-65
2021/05/27 15:30:03;;;;;;;;;;;16.50;88.50;;;;;;10577923;28;19928;-70
2021/05/27 15:35:06;;;;;;;;;;;16.40;89.50;;;;;;10577964;28;19928;-70
2021/05/27 15:40:07;;;;;;;;;;;16.20;90.40;;;;;;10576802;28;20383;-71
2021/05/27 15:45:10;;;;;;;;;;;16.70;90.10;;;;;;10576591;28;19924;-69
2021/05/27 15:50:14;;;;;;;;;;;16.90;87.90;;;;;;10577181;28;19928;-69
2021/05/27 15:55:15;;;;;;;;;;;16.90;88.40;;;;;;10574830;28;20348;-71
2021/05/27 16:00:18;;;;;;;;;;;17.90;88.10;;;;;;10574761;28;19995;-71
2021/05/27 16:05:20;;;;;;;;;;;17.20;87.00;;;;;;10574936;28;19976;-74
2021/05/27 16:10:22;;;;;;;;;;;17.00;88.50;;;;;;10575010;28;19935;-72
2021/05/27 16:15:24;;;;;;;;;;;17.00;88.00;;;;;;10574626;28;19927;-72
2021/05/27 16:20:26;;;;;;;;;;;17.30;85.50;;;;;;10574391;28;19931;-72
2021/05/27 16:25:27;;;;;;;;;;;16.50;86.40;;;;;;10573775;28;19993;-72
2021/05/27 16:30:29;;;;;;;;;;;16.20;89.40;;;;;;10574213;28;20023;-71
2021/05/27 16:35:35;;;;;;;;;;;16.00;91.00;;;;;;10573195;28;20001;-71
2021/05/27 16:40:37;;;;;;;;;;;15.90;90.90;;;;;;10574234;28;20380;-71
2021/05/27 16:45:40;;;;;;;;;;;15.80;91.10;;;;;;10572851;28;19977;-71
2021/05/27 16:50:42;;;;;;;;;;;15.50;91.20;;;;;;10573338;28;19927;-72
2021/05/27 16:55:43;;;;;;;;;;;16.00;92.70;;;;;;10574021;28;20705;-72
2021/05/27 17:00:45;;;;;;;;;;;15.30;93.00;;;;;;10574442;28;19981;-71
2021/05/27 17:05:46;;;;;;;;;;;15.40;92.90;;;;;;10574399;28;19927;-71
2021/05/27 17:10:48;;;;;;;;;;;15.00;92.70;;;;;;10582035;28;19934;-72
2021/05/27 17:15:50;;;;;;;;;;;15.30;93.30;;;;;;10580945;28;19959;-72
2021/05/27 17:20:51;;;;;;;;;;;15.20;92.80;;;;;;10581338;28;19928;-72
2021/05/27 17:25:52;;;;;;;;;;;15.40;93.40;;;;;;10581265;28;19924;-72
2021/05/27 17:30:54;;;;;;;;;;;15.10;93.70;;;;;;10582659;28;19928;-71
2021/05/27 17:35:56;;;;;;;;;;;14.90;93.90;;;;;;10581488;28;19924;-71
2021/05/27 17:40:57;;;;;;;;;;;14.40;94.40;;;;;;10583548;28;19930;-72
2021/05/27 17:45:59;;;;;;;;;;;14.20;95.70;;;;;;10579974;28;19972;-72
2021/05/27 17:51:00;;;;;;;;;;;10.80;95.70;;;;;;10580374;28;20368;-69
2021/05/27 17:56:04;;;;;;;;;;;14.10;97.60;;;;;;10580128;28;20056;-72
2021/05/27 18:01:07;;;;;;;;;;;14.10;97.20;;;;;;10579310;28;19923;-72
2021/05/27 18:06:08;;;;;;;;;;;14.00;96.80;;;;;;10579223;28;19928;-70
2021/05/27 18:11:09;;;;;;;;;;;13.80;97.50;;;;;;10578751;28;20007;-69
2021/05/27 18:16:12;;;;;;;;;;;13.60;97.80;;;;;;10578923;28;19934;-72
2021/05/27 18:21:13;;;;;;;;;;;13.30;99.10;;;;;;10578712;28;19935;-71
2021/05/27 18:26:15;;;;;;;;;;;13.50;99.90;;;;;;10578260;28;19923;-69
2021/05/27 18:31:17;;;;;;;;;;;13.20;99.80;;;;;;10578027;28;19927;-69
2021/05/27 18:36:18;;;;;;;;;;;12.90;99.90;;;;;;10577848;28;20037;-69
2021/05/27 18:41:19;;;;;;;;;;;12.70;99.90;;;;;;10577801;28;19967;-70
2021/05/27 18:46:21;;;;;;;;;;;12.60;99.90;;;;;;10576975;28;19923;-72
2021/05/27 18:51:22;;;;;;;;;;;12.70;99.90;;;;;;10577242;28;19927;-75
2021/05/27 18:56:24;;;;;;;;;;;12.60;99.90;;;;;;10576544;28;20015;-73
2021/05/27 19:01:26;;;;;;;;;;;12.50;99.90;;;;;;10578920;28;19931;-72
2021/05/27 19:06:27;;;;;;;;;;;12.40;99.90;;;;;;10576514;28;19930;-69
2021/05/27 19:11:28;;;;;;;;;;;12.10;99.90;;;;;;10576069;28;20015;-70
2021/05/27 19:16:30;;;;;;;;;;;11.80;99.90;;;;;;10575438;28;19924;-73
2021/05/27 19:21:31;;;;;;;;;;;11.60;99.90;;;;;;10575784;28;19927;-70
2021/05/27 19:26:33;;;;;;;;;;;11.50;99.90;;;;;;10575079;28;19930;-72
2021/05/27 19:31:35;;;;;;;;;;;11.30;99.90;;;;;;10574647;28;20360;-72
2021/05/27 19:36:37;;;;;;;;;;;11.20;99.90;;;;;;10575187;28;19984;-71
2021/05/27 19:41:38;;;;;;;;;;;11.10;99.90;;;;;;10575103;28;19934;-71
2021/05/27 19:46:40;;;;;;;;;;;11.20;99.90;;;;;;10574033;28;19934;-72
2021/05/27 19:51:41;;;;;;;;;;;11.10;99.90;;;;;;10574857;28;19934;-72
2021/05/27 19:56:42;;;;;;;;;;;11.00;99.90;;;;;;10575352;28;20411;-72
2021/05/27 20:01:44;;;;;;;;;;;9.30;99.90;;;;;;10574528;28;19924;-72
2021/05/27 20:06:45;;;;;;;;;;;10.40;99.90;;;;;;10574414;28;19963;-71
2021/05/27 20:11:46;;;;;;;;;;;10.60;99.90;;;;;;10574550;28;19938;-72
2021/05/27 20:16:48;;;;;;;;;;;10.50;99.90;;;;;;10574899;28;20003;-71
2021/05/27 20:21:49;;;;;;;;;;;10.40;99.90;;;;;;10574516;28;20006;-72
2021/05/27 20:26:50;;;;;;;;;;;10.20;99.90;;;;;;10573288;28;19932;-73
2021/05/27 20:31:53;;;;;;;;;;;10.20;99.90;;;;;;10574178;28;19923;-73
2021/05/27 20:36:54;;;;;;;;;;;10.10;99.90;;;;;;10574087;28;20010;-72
2021/05/27 20:41:55;;;;;;;;;;;10.00;99.90;;;;;;10576259;28;20011;-71
2021/05/27 20:46:57;;;;;;;;;;;9.90;99.90;;;;;;10579540;28;20392;-72
2021/05/27 20:51:58;;;;;;;;;;;9.80;99.90;;;;;;10580619;28;19934;-73
2021/05/27 20:57:00;;;;;;;;;;;9.80;99.90;;;;;;10580857;28;20368;-72
2021/05/27 21:02:02;;;;;;;;;;;9.70;99.90;;;;;;10581394;28;19927;-71
2021/05/27 21:07:03;;;;;;;;;;;9.60;99.90;;;;;;10581497;28;19928;-70
2021/05/27 21:12:05;;;;;;;;;;;9.50;99.90;;;;;;10581090;28;20524;-71
2021/05/27 21:17:07;;;;;;;;;;;9.50;99.90;;;;;;10582352;28;19927;-72
2021/05/27 21:22:08;;;;;;;;;;;9.40;99.90;;;;;;10583051;28;19967;-72
2021/05/27 21:27:09;;;;;;;;;;;9.30;99.90;;;;;;10583302;28;19923;-70
2021/05/27 21:32:11;;;;;;;;;;;9.20;99.90;;;;;;10583708;28;20593;-73
2021/05/27 21:37:13;;;;;;;;;;;9.10;99.90;;;;;;10582392;28;20014;-71
2021/05/27 21:42:14;;;;;;;;;;;9.10;99.90;;;;;;10582591;28;19966;-71
2021/05/27 21:47:16;;;;;;;;;;;9.10;99.90;;;;;;10579404;28;20006;-73
2021/05/27 21:52:17;;;;;;;;;;;9.70;99.90;;;;;;10581400;28;19923;-71
2021/05/27 21:57:18;;;;;;;;;;;8.90;99.90;;;;;;10581856;28;20313;-72
2021/05/27 22:02:20;;;;;;;;;;;8.90;99.90;;;;;;10581696;28;19924;-73
2021/05/27 22:07:21;;;;;;;;;;;8.80;99.90;;;;;;10581576;28;19969;-71
2021/05/27 22:12:22;;;;;;;;;;;8.80;99.90;;;;;;10581558;28;19924;-71
2021/05/27 22:17:24;;;;;;;;;;;8.80;99.90;;;;;;10581131;28;20047;-71
2021/05/27 22:22:25;;;;;;;;;;;8.70;99.90;;;;;;10580454;28;20637;-72
2021/05/27 22:27:27;;;;;;;;;;;8.60;99.90;;;;;;10580862;28;20335;-72
2021/05/27 22:32:30;;;;;;;;;;;8.60;99.90;;;;;;10580560;28;20010;-72
2021/05/27 22:37:31;;;;;;;;;;;8.50;99.90;;;;;;10578015;28;20302;-71
2021/05/27 22:42:32;;;;;;;;;;;8.50;99.90;;;;;;10580036;28;19934;-71
2021/05/27 22:47:34;;;;;;;;;;;8.40;99.90;;;;;;10579237;28;19989;-72
2021/05/27 22:52:35;;;;;;;;;;;8.30;99.90;;;;;;10580061;28;19938;-73
2021/05/27 22:57:36;;;;;;;;;;;8.20;99.90;;;;;;10579727;28;19934;-70
2021/05/27 23:02:38;;;;;;;;;;;8.10;99.90;;;;;;10579369;28;19996;-71
2021/05/27 23:07:39;;;;;;;;;;;8.00;99.90;;;;;;10577645;28;20006;-70
2021/05/27 23:12:41;;;;;;;;;;;7.90;99.90;;;;;;10576024;28;20027;-72
2021/05/27 23:17:43;;;;;;;;;;;7.80;99.90;;;;;;10575067;28;19924;-71
2021/05/27 23:22:44;;;;;;;;;;;7.70;99.90;;;;;;10575331;28;19927;-72
2021/05/27 23:27:45;;;;;;;;;;;7.60;99.90;;;;;;10577748;28;19927;-72
2021/05/27 23:32:47;;;;;;;;;;;7.60;99.90;;;;;;10577699;28;19928;-71
2021/05/27 23:37:48;;;;;;;;;;;7.70;99.90;;;;;;10576992;28;19930;-71
2021/05/27 23:42:50;;;;;;;;;;;7.60;99.90;;;;;;10576412;28;19928;-71
2021/05/27 23:47:52;;;;;;;;;;;7.50;99.90;;;;;;10575291;28;20345;-71
2021/05/27 23:52:53;;;;;;;;;;;7.40;99.90;;;;;;10576027;28;20396;-71
2021/05/27 23:57:54;;;;;;;;;;;7.40;99.90;;;;;;10575374;28;19930;-71
